NATURA VA

 INFORMACIÓN METAR y TAF
METAR FOR GMMH
ADDS - METARS form results

(2312 UTC 17 June 2019)
Data provider http://aviationweather.gov/metar/data/
 
Forecast for: GMMH (DAKHLA AIRPORT , MA)
Text: TAF GMMH 171700Z 1718/1824 02018KT CAVOK
Forecast period: 1800 UTC 17 June 2019 to 0000 UTC 18 June 2019
Forecast type: FROM: standard forecast or significant change
Winds: from the NNE (20 degrees) at 21 MPH (18 knots; 9.3 m/s)
Visibility: 6 or more miles 10+ km)
Ceiling: unknown
Clouds: missing
Weather: NSW  (no significant weather)
Text: BECMG 1800/1802 BKN010
Forecast period: 0000 UTC 18 June 2019 to 0000 UTC 19 June 2019
Forecast type: BECOMING: Conditions expected to become as follows by 0200 UTC 18 June 2019
Winds: from the NNE (20 degrees) at 21 MPH (18 knots; 9.3 m/s)
Visibility: 6 or more miles 10+ km)
Ceiling: 1000 feet AGL
Clouds: broken clouds at 1000 feet AGL
Weather: NSW  (no significant weather)

 MAPA DE AEROPUERTO

 INFORMACIÓN DE PISTA
Pista 03 Longitud 9842 ft Ancho 148 ft
Elevación 36 ft Umbral desplazado 0 ft Rumbo de pista 23
Pista 21 Longitud 9842 ft Ancho 148 ft
Elevación 27 ft Umbral desplazado 0 ft Rumbo de pista 203

 FRECUANCIAS DEL AEROPUERTO
Tipo TWR Nombre TWR Frecuencia 118.1 MHZ

 RADIO AYUDAS DEL AEROPUERTO
Tipo NDB Nombre Dakhla Frecuencia 221 KHZ
Tipo VOR-DME Nombre Dakhla Frecuencia 115800 KHZ



Powered by Virtual Airlines Manager [v2.6.2]